Time;durP1;ratioP1;P1;durP2;ratioP2;P2;SDS_P1;SDS_P2;PMS_P1;PMS_P2;Temp;Humidity;BMP_temperature;BMP_pressure;BME280_temperature;BME280_humidity;BME280_pressure;Samples;Min_cycle;Max_cycle;Signal;HPM_P1;HPM_P2
2021/03/31 00:02:39;;;;;;;7.70;3.70;;;10.70;67.30;;;;;;5091313;28;27419;-62
2021/03/31 00:05:24;;;;;;;5.10;3.17;;;10.70;67.50;;;;;;5107247;28;27394;-62
2021/03/31 00:08:08;;;;;;;9.05;3.67;;;10.60;67.30;;;;;;5106863;28;27414;-62
2021/03/31 00:10:53;;;;;;;4.78;3.33;;;10.60;67.30;;;;;;5106885;28;27405;-62
2021/03/31 00:13:38;;;;;;;5.32;3.67;;;10.60;67.30;;;;;;5106667;28;27347;-62
2021/03/31 00:16:23;;;;;;;4.45;3.60;;;10.50;67.40;;;;;;5106800;28;27353;-62
2021/03/31 00:19:07;;;;;;;4.40;3.15;;;10.40;67.30;;;;;;5091534;28;27846;-62
2021/03/31 00:21:52;;;;;;;4.40;3.00;;;10.40;67.50;;;;;;5106948;28;27408;-62
2021/03/31 00:24:36;;;;;;;5.10;3.20;;;10.40;67.30;;;;;;5106655;28;27341;-62
2021/03/31 00:27:21;;;;;;;5.13;3.20;;;10.40;67.20;;;;;;5103331;28;27393;-62
2021/03/31 00:30:09;;;;;;;5.07;3.13;;;10.30;67.50;;;;;;5103179;28;27973;-62
2021/03/31 00:32:53;;;;;;;6.07;3.15;;;10.30;67.60;;;;;;5106724;28;27373;-62
2021/03/31 00:35:38;;;;;;;5.45;3.00;;;10.20;67.60;;;;;;5106440;28;27403;-62
2021/03/31 00:38:22;;;;;;;5.82;3.17;;;10.20;67.80;;;;;;5106769;28;27401;-62
2021/03/31 00:41:07;;;;;;;5.22;3.50;;;10.10;67.80;;;;;;5106318;28;27873;-62
2021/03/31 00:43:51;;;;;;;7.22;3.78;;;10.10;67.90;;;;;;5105378;28;27369;-62
2021/03/31 00:46:36;;;;;;;10.30;3.83;;;10.10;67.90;;;;;;5106360;28;27399;-62
2021/03/31 00:49:20;;;;;;;5.85;3.17;;;10.00;67.90;;;;;;5103267;28;27361;-62
2021/03/31 00:52:05;;;;;;;10.18;3.95;;;10.00;67.80;;;;;;5106441;28;27486;-62
2021/03/31 00:54:50;;;;;;;5.45;3.38;;;10.00;67.60;;;;;;5103439;28;27642;-62
2021/03/31 00:57:35;;;;;;;7.95;2.78;;;9.90;67.80;;;;;;5076971;28;27424;-62
2021/03/31 01:00:20;;;;;;;6.05;4.00;;;9.90;67.90;;;;;;5102789;28;27593;-62
2021/03/31 01:03:05;;;;;;;6.15;3.70;;;9.90;67.90;;;;;;5106058;28;27482;-63
2021/03/31 01:05:49;;;;;;;7.40;3.88;;;9.80;67.90;;;;;;5090867;28;27537;-61
2021/03/31 01:08:34;;;;;;;7.07;4.22;;;9.80;67.90;;;;;;5106281;28;27423;-61
2021/03/31 01:11:29;;;;;;;10.82;4.20;;;9.80;68.00;;;;;;5106216;28;27414;-61
2021/03/31 01:14:39;;;;;;;9.57;3.30;;;9.70;68.00;;;;;;5105503;28;27477;-61
2021/03/31 01:18:04;;;;;;;7.50;3.60;;;9.70;68.10;;;;;;5067055;28;27627;-61
2021/03/31 01:21:21;;;;;;;7.68;3.83;;;9.60;67.90;;;;;;5105767;28;27331;-60
2021/03/31 01:24:30;;;;;;;5.40;3.58;;;9.60;67.90;;;;;;5083227;28;27490;-60
2021/03/31 01:27:18;;;;;;;6.18;3.58;;;9.60;68.10;;;;;;5105926;28;27853;-61
2021/03/31 01:30:21;;;;;;;7.53;4.00;;;9.50;67.90;;;;;;5105622;28;27341;-62
2021/03/31 01:33:08;;;;;;;5.30;3.80;;;9.50;68.10;;;;;;5090453;28;27353;-61
2021/03/31 01:35:53;;;;;;;6.50;3.25;;;9.40;68.20;;;;;;5105854;28;27396;-61
2021/03/31 01:38:37;;;;;;;6.57;3.80;;;9.40;68.20;;;;;;5090542;28;27396;-61
2021/03/31 01:41:21;;;;;;;6.07;3.83;;;9.40;68.10;;;;;;5090490;28;27397;-61
2021/03/31 01:44:07;;;;;;;4.90;3.47;;;9.40;68.20;;;;;;5083581;28;27415;-61
2021/03/31 01:46:56;;;;;;;10.68;3.42;;;9.40;68.40;;;;;;5085205;28;27366;-61
2021/03/31 01:49:40;;;;;;;7.28;3.58;;;9.30;68.10;;;;;;5084104;28;27427;-61
2021/03/31 01:52:25;;;;;;;9.38;3.83;;;9.30;68.30;;;;;;5084012;28;27502;-61
2021/03/31 01:55:12;;;;;;;4.70;3.63;;;9.20;68.20;;;;;;5085102;28;27340;-61
2021/03/31 01:57:57;;;;;;;7.13;3.67;;;9.20;68.10;;;;;;5084737;28;27466;-61
2021/03/31 02:00:41;;;;;;;6.78;4.20;;;9.20;68.30;;;;;;5083903;28;27420;-61
2021/03/31 02:03:25;;;;;;;5.80;4.03;;;9.10;68.30;;;;;;5083862;28;27440;-61
2021/03/31 02:06:11;;;;;;;8.10;3.83;;;9.10;68.20;;;;;;5069834;28;27389;-61
2021/03/31 02:08:56;;;;;;;8.70;3.47;;;9.10;68.30;;;;;;5084659;28;27435;-61
2021/03/31 02:11:43;;;;;;;9.25;3.45;;;9.00;68.30;;;;;;5084070;28;27432;-61
2021/03/31 02:14:28;;;;;;;8.85;3.72;;;9.00;68.40;;;;;;5084148;28;27499;-61
2021/03/31 02:17:17;;;;;;;6.20;3.95;;;9.00;68.50;;;;;;5084533;28;27442;-61
2021/03/31 02:20:03;;;;;;;6.47;3.78;;;9.00;68.40;;;;;;5080702;28;27379;-61
2021/03/31 02:22:48;;;;;;;10.85;3.80;;;8.90;68.50;;;;;;5080354;28;27301;-61
2021/03/31 02:25:33;;;;;;;7.13;4.20;;;8.90;68.40;;;;;;5084608;28;27410;-61
2021/03/31 02:28:18;;;;;;;7.03;4.10;;;8.90;68.50;;;;;;5080626;28;27406;-61
2021/03/31 02:31:05;;;;;;;6.63;3.80;;;8.90;68.70;;;;;;5084300;28;27313;-61
2021/03/31 02:33:49;;;;;;;9.23;3.88;;;8.80;68.60;;;;;;5084271;28;27971;-61
2021/03/31 02:36:34;;;;;;;6.38;3.97;;;8.80;68.70;;;;;;5083699;28;27357;-61
2021/03/31 02:39:19;;;;;;;8.00;3.95;;;8.80;68.90;;;;;;5083442;28;27342;-61
2021/03/31 02:42:05;;;;;;;7.80;3.75;;;8.70;68.70;;;;;;5083683;28;27338;-61
2021/03/31 02:44:52;;;;;;;6.53;3.72;;;8.70;68.70;;;;;;5101094;28;27431;-62
2021/03/31 02:47:39;;;;;;;7.95;3.78;;;8.70;68.70;;;;;;5086480;28;27479;-61
2021/03/31 02:50:24;;;;;;;11.43;4.15;;;8.70;68.70;;;;;;5075206;28;27576;-61
2021/03/31 02:53:09;;;;;;;5.18;3.65;;;8.70;68.70;;;;;;5089175;28;27420;-61
2021/03/31 02:55:55;;;;;;;7.25;4.05;;;8.60;68.60;;;;;;5089477;28;27880;-61
2021/03/31 02:58:40;;;;;;;7.75;4.10;;;8.60;68.90;;;;;;5089653;27;27484;-61
2021/03/31 03:01:25;;;;;;;8.27;4.43;;;8.60;68.90;;;;;;5108303;28;27478;-61
2021/03/31 03:04:09;;;;;;;6.78;4.35;;;8.50;68.90;;;;;;5078498;28;27425;-61
2021/03/31 03:06:54;;;;;;;6.68;4.05;;;8.50;68.90;;;;;;5092749;28;27403;-61
2021/03/31 03:09:38;;;;;;;8.55;4.60;;;8.50;68.90;;;;;;5108152;28;27476;-61
2021/03/31 03:12:23;;;;;;;9.05;4.30;;;8.50;69.60;;;;;;5078684;28;27494;-61
2021/03/31 03:15:08;;;;;;;6.43;4.00;;;8.50;68.80;;;;;;5075084;28;27405;-61
2021/03/31 03:17:52;;;;;;;6.80;4.15;;;8.40;68.80;;;;;;5104649;28;27976;-61
2021/03/31 03:20:36;;;;;;;8.18;4.00;;;8.40;68.60;;;;;;5092499;28;27474;-61
2021/03/31 03:23:21;;;;;;;6.95;3.65;;;8.40;68.80;;;;;;5108019;28;27379;-61
2021/03/31 03:26:06;;;;;;;9.00;3.67;;;8.30;68.80;;;;;;5107965;28;27447;-61
2021/03/31 03:28:50;;;;;;;11.15;4.20;;;8.30;68.80;;;;;;5107480;28;27418;-62
2021/03/31 03:31:36;;;;;;;6.22;4.10;;;8.30;68.90;;;;;;5089541;28;27347;-61
2021/03/31 03:34:21;;;;;;;6.63;4.15;;;8.30;68.90;;;;;;5075009;28;26931;-62
2021/03/31 03:37:05;;;;;;;8.68;4.25;;;8.20;68.90;;;;;;5077992;28;27400;-61
2021/03/31 03:39:49;;;;;;;4.93;3.88;;;8.20;68.80;;;;;;5092158;28;27394;-61
2021/03/31 03:42:34;;;;;;;8.55;4.38;;;8.20;68.90;;;;;;5077318;28;27381;-61
2021/03/31 03:45:21;;;;;;;5.15;4.18;;;8.20;69.00;;;;;;5078071;28;27406;-61
2021/03/31 03:48:06;;;;;;;5.55;4.20;;;8.10;69.10;;;;;;5107560;28;27381;-61
2021/03/31 03:50:50;;;;;;;8.52;4.38;;;8.10;69.20;;;;;;5107140;28;27336;-61
2021/03/31 03:53:35;;;;;;;9.27;4.18;;;8.10;69.30;;;;;;5107265;28;27549;-61
2021/03/31 03:56:20;;;;;;;9.02;4.18;;;8.10;69.20;;;;;;5107174;28;27411;-61
2021/03/31 03:59:21;;;;;;;6.15;3.92;;;8.00;69.30;;;;;;5088857;28;27392;-61
2021/03/31 04:02:05;;;;;;;6.70;3.83;;;8.00;69.10;;;;;;5107013;28;27458;-61
2021/03/31 04:04:50;;;;;;;8.60;4.28;;;8.00;69.20;;;;;;5106936;28;27479;-61
2021/03/31 04:07:34;;;;;;;6.70;3.67;;;8.00;69.20;;;;;;5107012;28;27420;-61
2021/03/31 04:10:22;;;;;;;9.30;4.10;;;7.90;69.20;;;;;;5089887;27;27427;-61
2021/03/31 04:13:07;;;;;;;6.78;4.05;;;7.90;69.50;;;;;;5106726;28;27357;-61
2021/03/31 04:15:55;;;;;;;6.53;4.32;;;7.90;69.50;;;;;;5091613;28;27419;-61
2021/03/31 04:18:39;;;;;;;4.88;3.60;;;7.90;69.30;;;;;;5107058;28;27411;-61
2021/03/31 04:21:24;;;;;;;5.85;4.25;;;7.90;69.50;;;;;;5077220;28;27433;-61
2021/03/31 04:24:11;;;;;;;8.05;4.70;;;7.90;69.50;;;;;;5091764;28;27397;-61
2021/03/31 04:26:56;;;;;;;6.30;4.32;;;7.80;69.40;;;;;;5106639;28;27440;-61
2021/03/31 04:29:43;;;;;;;8.85;4.10;;;7.80;69.40;;;;;;5077330;28;27348;-61
2021/03/31 04:32:28;;;;;;;7.78;4.75;;;7.80;69.40;;;;;;5092123;28;27416;-61
2021/03/31 04:35:13;;;;;;;7.30;4.45;;;7.80;69.40;;;;;;5106678;28;27464;-61
2021/03/31 04:38:13;;;;;;;7.50;4.32;;;7.80;69.70;;;;;;5088042;28;27507;-61
2021/03/31 04:41:01;;;;;;;5.43;3.75;;;7.70;69.70;;;;;;5103283;28;27360;-61
2021/03/31 04:43:46;;;;;;;6.40;4.45;;;7.70;69.70;;;;;;5105852;28;27600;-62
2021/03/31 04:46:31;;;;;;;7.57;4.38;;;7.70;69.70;;;;;;5106527;28;27431;-60
2021/03/31 04:49:15;;;;;;;6.03;4.20;;;7.70;69.60;;;;;;5106627;28;27540;-60
2021/03/31 04:52:00;;;;;;;5.50;4.30;;;7.70;69.70;;;;;;5106614;28;27392;-60
2021/03/31 04:54:44;;;;;;;7.03;4.65;;;7.70;69.90;;;;;;5106199;28;27312;-61
2021/03/31 04:57:29;;;;;;;6.15;4.53;;;7.60;69.70;;;;;;5106400;28;27332;-61
2021/03/31 05:00:13;;;;;;;8.43;4.32;;;7.60;69.80;;;;;;5106108;28;27418;-60
2021/03/31 05:02:58;;;;;;;7.78;4.22;;;7.70;69.80;;;;;;5106134;28;27422;-61
2021/03/31 05:05:42;;;;;;;6.35;4.57;;;7.60;69.60;;;;;;5105698;28;27336;-61
2021/03/31 05:08:27;;;;;;;15.70;5.13;;;7.60;69.70;;;;;;5090963;28;27386;-61
2021/03/31 05:11:11;;;;;;;11.57;4.25;;;7.60;69.60;;;;;;5106143;28;27505;-61
2021/03/31 05:13:56;;;;;;;6.28;4.53;;;7.60;69.90;;;;;;5105997;28;27516;-61
2021/03/31 05:16:40;;;;;;;8.25;3.83;;;7.60;70.00;;;;;;5106144;28;27456;-61
2021/03/31 05:19:25;;;;;;;6.40;3.75;;;7.60;70.00;;;;;;5087334;28;27461;-61
2021/03/31 05:22:09;;;;;;;6.35;4.10;;;7.70;70.10;;;;;;5105209;27;27431;-61
2021/03/31 05:24:54;;;;;;;7.70;4.28;;;7.70;69.80;;;;;;5105978;28;27415;-61
2021/03/31 05:27:38;;;;;;;5.97;3.83;;;7.70;69.90;;;;;;5102377;28;27393;-62
2021/03/31 05:30:23;;;;;;;7.78;4.15;;;7.70;69.50;;;;;;5105594;28;27989;-61
2021/03/31 05:33:08;;;;;;;7.10;4.72;;;7.80;69.60;;;;;;5105011;28;27664;-61
2021/03/31 05:35:53;;;;;;;6.57;3.83;;;7.80;69.40;;;;;;5087477;28;27436;-61
2021/03/31 05:38:37;;;;;;;5.85;4.75;;;7.90;69.60;;;;;;5105715;28;27457;-61
2021/03/31 05:41:22;;;;;;;5.55;4.22;;;7.90;69.20;;;;;;5105648;28;27416;-61
2021/03/31 05:44:07;;;;;;;6.03;4.07;;;7.90;69.00;;;;;;5104762;28;27479;-61
2021/03/31 05:46:52;;;;;;;7.10;4.15;;;8.00;69.10;;;;;;5105428;28;27559;-61
2021/03/31 05:49:37;;;;;;;5.38;3.88;;;8.00;69.30;;;;;;5105581;28;27462;-61
2021/03/31 05:52:22;;;;;;;7.22;4.30;;;8.10;69.20;;;;;;5105442;28;27498;-61
2021/03/31 05:55:09;;;;;;;6.35;3.83;;;8.20;69.30;;;;;;5105124;28;27619;-61
2021/03/31 05:57:53;;;;;;;6.55;3.40;;;8.20;68.80;;;;;;5105181;28;27427;-61
2021/03/31 06:00:38;;;;;;;6.07;4.15;;;8.30;68.70;;;;;;5104715;28;27450;-61
2021/03/31 06:03:23;;;;;;;6.28;4.10;;;8.30;68.50;;;;;;5104990;28;27446;-61
2021/03/31 06:06:07;;;;;;;5.50;3.60;;;8.40;68.10;;;;;;5089786;28;27502;-61
2021/03/31 06:08:52;;;;;;;5.13;3.58;;;8.50;68.20;;;;;;5104997;28;27435;-61
2021/03/31 06:11:52;;;;;;;7.63;3.92;;;8.60;68.00;;;;;;5101684;28;27470;-61
2021/03/31 06:14:39;;;;;;;7.70;3.88;;;8.70;67.90;;;;;;5104571;28;27384;-61
2021/03/31 06:17:24;;;;;;;5.35;3.55;;;8.70;67.80;;;;;;5104893;28;27359;-61
2021/03/31 06:20:09;;;;;;;9.10;4.28;;;8.70;67.50;;;;;;5105149;28;27375;-61
2021/03/31 06:23:06;;;;;;;7.50;4.03;;;8.80;67.50;;;;;;5089761;28;27432;-61
2021/03/31 06:25:57;;;;;;;6.85;3.95;;;8.80;67.30;;;;;;5104967;28;27427;-61
2021/03/31 06:28:41;;;;;;;9.70;3.75;;;8.80;67.70;;;;;;5104391;28;27403;-61
2021/03/31 06:31:34;;;;;;;4.97;3.67;;;8.90;67.70;;;;;;5105051;28;27415;-61
2021/03/31 06:34:21;;;;;;;6.93;4.25;;;9.00;67.70;;;;;;5103974;28;27450;-62
2021/03/31 06:37:09;;;;;;;6.53;4.07;;;9.00;67.60;;;;;;5104823;28;27987;-62
2021/03/31 06:39:54;;;;;;;9.18;4.20;;;9.10;67.90;;;;;;5090201;28;27458;-62
2021/03/31 06:42:44;;;;;;;10.25;3.95;;;9.20;68.20;;;;;;5104631;28;27414;-61
2021/03/31 06:45:36;;;;;;;9.27;3.80;;;9.40;68.00;;;;;;5063171;28;27476;-62
2021/03/31 06:48:22;;;;;;;6.15;3.85;;;9.60;67.50;;;;;;5064012;28;27333;-61
2021/03/31 06:51:26;;;;;;;9.68;4.10;;;9.90;67.40;;;;;;5049129;28;27511;-61
2021/03/31 06:54:21;;;;;;;8.38;4.00;;;10.10;67.00;;;;;;5063207;28;27322;-61
2021/03/31 06:57:06;;;;;;;5.25;3.33;;;10.40;66.50;;;;;;5062319;28;27514;-61
2021/03/31 06:59:58;;;;;;;5.72;3.92;;;10.80;65.90;;;;;;5063151;28;27467;-61
2021/03/31 07:02:45;;;;;;;5.47;4.22;;;11.30;65.10;;;;;;5063983;28;27396;-62
2021/03/31 07:05:34;;;;;;;10.60;3.85;;;12.00;64.20;;;;;;5063630;28;27429;-62
2021/03/31 07:08:19;;;;;;;6.75;3.47;;;12.60;63.20;;;;;;5063823;28;27485;-63
2021/03/31 07:11:04;;;;;;;6.90;3.78;;;13.40;60.80;;;;;;5062994;28;27854;-62
2021/03/31 07:13:48;;;;;;;4.85;4.35;;;14.30;58.30;;;;;;5063541;28;27403;-61
2021/03/31 07:16:33;;;;;;;5.07;3.80;;;15.20;56.20;;;;;;5045446;28;27481;-61
2021/03/31 07:19:18;;;;;;;7.80;4.68;;;16.00;54.80;;;;;;5062703;28;27503;-61
2021/03/31 07:22:02;;;;;;;7.25;4.13;;;16.90;54.40;;;;;;5063624;28;27468;-61
2021/03/31 07:24:47;;;;;;;11.25;3.88;;;17.60;53.60;;;;;;5062013;28;27574;-61
2021/03/31 07:27:33;;;;;;;6.43;4.75;;;17.90;53.50;;;;;;5063607;28;27400;-62
2021/03/31 07:30:21;;;;;;;6.60;4.47;;;18.10;53.30;;;;;;5062526;28;27416;-61
2021/03/31 07:33:22;;;;;;;5.60;3.90;;;18.10;52.90;;;;;;5063344;28;27857;-61
2021/03/31 07:36:10;;;;;;;6.53;3.80;;;18.50;52.30;;;;;;5063226;28;27413;-62
2021/03/31 07:38:55;;;;;;;6.45;4.00;;;18.70;52.00;;;;;;5063495;28;27401;-62
2021/03/31 07:41:39;;;;;;;7.80;4.53;;;19.20;51.70;;;;;;5060194;28;27463;-61
2021/03/31 07:44:33;;;;;;;6.85;3.80;;;19.70;50.00;;;;;;5090953;28;27470;-61
2021/03/31 07:47:18;;;;;;;8.57;3.97;;;20.30;49.00;;;;;;5091072;28;27499;-62
2021/03/31 07:50:04;;;;;;;8.48;4.53;;;20.80;48.10;;;;;;5074675;28;26871;-62
2021/03/31 07:52:55;;;;;;;5.97;4.30;;;21.30;47.00;;;;;;5106592;28;27411;-61
2021/03/31 07:55:48;;;;;;;8.30;4.28;;;21.80;46.30;;;;;;5107115;28;27347;-61
2021/03/31 07:58:32;;;;;;;8.07;4.80;;;22.40;45.80;;;;;;5107127;28;27361;-62
2021/03/31 08:01:16;;;;;;;7.88;4.63;;;23.00;44.10;;;;;;5107129;28;27402;-63
2021/03/31 08:04:02;;;;;;;8.38;4.00;;;23.60;43.60;;;;;;5074480;28;27439;-62
2021/03/31 08:06:50;;;;;;;6.38;4.25;;;24.00;43.00;;;;;;5107243;28;27398;-62
2021/03/31 08:09:36;;;;;;;5.53;4.47;;;24.40;42.60;;;;;;5103966;28;27346;-62
2021/03/31 08:12:38;;;;;;;7.57;4.72;;;24.70;41.90;;;;;;5078228;28;27346;-62
2021/03/31 08:15:49;;;;;;;7.63;4.18;;;24.80;41.80;;;;;;5107216;28;27320;-65
2021/03/31 08:18:33;;;;;;;8.57;4.40;;;25.10;41.60;;;;;;5104374;28;27416;-62
2021/03/31 08:21:25;;;;;;;5.07;4.03;;;25.50;41.40;;;;;;5091750;28;27626;-62
2021/03/31 08:24:11;;;;;;;5.57;3.92;;;25.90;40.80;;;;;;5106690;28;27410;-62
2021/03/31 08:26:59;;;;;;;5.85;3.95;;;26.30;40.30;;;;;;5106794;28;27313;-60
2021/03/31 08:29:46;;;;;;;6.85;4.53;;;26.60;39.50;;;;;;5103090;28;27877;-60
2021/03/31 08:32:30;;;;;;;6.03;3.75;;;26.90;39.10;;;;;;5106594;28;27509;-60
2021/03/31 08:35:15;;;;;;;8.18;4.57;;;27.40;38.40;;;;;;5091494;28;27417;-59
2021/03/31 08:38:00;;;;;;;7.47;4.32;;;27.80;37.50;;;;;;5091460;28;27322;-59
2021/03/31 08:40:45;;;;;;;7.60;4.28;;;28.20;36.90;;;;;;5106590;28;27447;-59
2021/03/31 08:43:30;;;;;;;6.40;4.43;;;28.60;36.00;;;;;;5105915;28;27557;-60
2021/03/31 08:46:31;;;;;;;7.82;5.05;;;29.00;35.30;;;;;;5090726;28;27518;-59
2021/03/31 08:49:22;;;;;;;7.32;4.63;;;29.30;35.00;;;;;;5106150;28;27337;-60
2021/03/31 08:52:11;;;;;;;7.53;3.90;;;29.70;34.90;;;;;;5106157;28;27932;-61
2021/03/31 08:54:55;;;;;;;10.77;4.75;;;29.90;34.80;;;;;;5102843;28;27371;-62
2021/03/31 08:57:41;;;;;;;12.88;4.95;;;30.30;34.10;;;;;;5106147;27;27379;-59
2021/03/31 09:00:25;;;;;;;8.52;4.22;;;30.50;33.90;;;;;;5106008;28;27311;-60
2021/03/31 09:03:10;;;;;;;6.03;4.30;;;30.80;33.70;;;;;;5102937;28;27317;-59
2021/03/31 09:05:56;;;;;;;11.57;5.22;;;31.10;33.40;;;;;;5106185;28;27397;-59
2021/03/31 09:08:41;;;;;;;8.07;4.43;;;31.40;32.90;;;;;;5105913;28;27520;-59
2021/03/31 09:11:29;;;;;;;12.05;5.20;;;31.60;32.90;;;;;;5090831;28;27414;-59
2021/03/31 09:14:21;;;;;;;5.60;4.05;;;31.90;32.20;;;;;;5104861;28;27550;-59
2021/03/31 09:17:10;;;;;;;8.30;4.55;;;32.10;32.60;;;;;;5105647;28;27415;-59
2021/03/31 09:20:08;;;;;;;11.57;4.63;;;32.30;32.30;;;;;;5106036;28;27480;-59
2021/03/31 09:22:53;;;;;;;10.30;5.03;;;32.50;31.80;;;;;;5105626;28;27397;-59
2021/03/31 09:25:38;;;;;;;7.85;4.50;;;32.70;31.70;;;;;;5090620;28;27361;-59
2021/03/31 09:28:22;;;;;;;8.18;4.93;;;32.90;31.20;;;;;;5105501;28;27536;-60
2021/03/31 09:31:10;;;;;;;9.73;5.00;;;33.10;30.90;;;;;;5105962;28;27380;-59
2021/03/31 09:33:55;;;;;;;8.82;4.45;;;33.30;31.00;;;;;;5105650;28;27435;-59
2021/03/31 09:36:39;;;;;;;5.00;3.47;;;33.40;31.10;;;;;;5105769;28;27357;-61
2021/03/31 09:39:41;;;;;;;10.80;4.32;;;33.60;31.00;;;;;;5072772;28;27558;-60
2021/03/31 09:42:37;;;;;;;5.85;4.43;;;33.90;31.10;;;;;;5105738;28;27385;-61
2021/03/31 09:45:29;;;;;;;6.13;4.10;;;34.10;30.60;;;;;;5090892;28;27350;-60
2021/03/31 09:48:15;;;;;;;7.85;4.13;;;34.20;30.80;;;;;;5105603;28;27480;-61
2021/03/31 09:51:08;;;;;;;8.70;3.83;;;34.50;30.50;;;;;;5090803;28;27485;-61
2021/03/31 09:53:52;;;;;;;4.40;3.33;;;34.70;30.40;;;;;;5077138;28;27417;-61
2021/03/31 09:56:37;;;;;;;6.30;4.43;;;34.90;30.60;;;;;;5089971;28;27493;-61
2021/03/31 09:59:21;;;;;;;7.18;4.20;;;35.00;30.30;;;;;;5089945;28;27473;-61
2021/03/31 10:02:11;;;;;;;6.38;4.40;;;35.20;29.90;;;;;;5076083;28;27610;-61
2021/03/31 10:05:00;;;;;;;10.00;4.20;;;35.40;29.90;;;;;;5105186;28;27467;-61
2021/03/31 10:08:00;;;;;;;10.07;4.93;;;35.60;29.70;;;;;;5104745;28;27395;-61
2021/03/31 10:10:55;;;;;;;8.98;4.57;;;35.90;29.20;;;;;;5105042;28;27412;-61
2021/03/31 10:13:40;;;;;;;10.48;4.47;;;36.10;29.20;;;;;;5104752;28;27459;-61
2021/03/31 10:16:37;;;;;;;8.93;5.00;;;36.30;29.20;;;;;;5101720;28;27462;-60
2021/03/31 10:19:22;;;;;;;9.77;4.60;;;36.40;28.70;;;;;;5104938;28;27397;-60
2021/03/31 10:22:07;;;;;;;10.73;5.00;;;36.60;28.70;;;;;;5089946;28;27321;-60
2021/03/31 10:24:51;;;;;;;6.28;3.90;;;36.70;28.30;;;;;;5086452;28;27388;-61
2021/03/31 10:27:43;;;;;;;8.50;4.00;;;36.80;28.50;;;;;;5086219;28;27460;-60
2021/03/31 10:30:30;;;;;;;7.93;4.03;;;37.00;29.00;;;;;;5104551;28;27493;-61
2021/03/31 10:33:15;;;;;;;9.10;3.97;;;37.20;28.90;;;;;;5104430;28;27423;-60
2021/03/31 10:36:00;;;;;;;6.78;4.00;;;37.40;28.80;;;;;;5104259;28;27485;-60
2021/03/31 10:38:53;;;;;;;8.32;4.43;;;37.50;28.30;;;;;;5090084;28;27478;-60
2021/03/31 10:54:09;;;;;;;5.55;4.00;;;38.20;27.60;;;;;;5080485;28;27313;-61
2021/03/31 10:57:04;;;;;;;6.10;4.35;;;38.30;27.60;;;;;;5084185;28;27445;-60
2021/03/31 10:59:49;;;;;;;5.57;3.17;;;38.40;26.70;;;;;;5083932;28;27478;-61
2021/03/31 11:02:34;;;;;;;6.07;3.40;;;38.50;27.20;;;;;;5083695;28;27465;-62
2021/03/31 11:05:19;;;;;;;5.30;2.67;;;38.60;27.70;;;;;;5084162;28;27406;-61
2021/03/31 11:08:04;;;;;;;3.70;2.78;;;38.70;27.80;;;;;;5084154;28;27419;-62
2021/03/31 11:10:49;;;;;;;9.75;3.28;;;38.80;27.70;;;;;;5084043;28;27514;-61
2021/03/31 11:13:33;;;;;;;6.70;3.38;;;39.00;27.20;;;;;;5084004;28;27429;-61
2021/03/31 11:16:18;;;;;;;5.57;3.13;;;39.10;27.70;;;;;;5084028;28;27415;-64
2021/03/31 11:19:23;;;;;;;6.47;2.92;;;39.20;26.20;;;;;;5083680;28;27876;-61
2021/03/31 11:28:16;;;;;;;4.88;2.17;;;39.60;26.10;;;;;;5087160;28;27332;-62
2021/03/31 11:31:01;;;;;;;4.75;2.05;;;39.70;25.50;;;;;;5086767;28;28057;-61
2021/03/31 11:33:45;;;;;;;4.63;2.20;;;39.80;25.80;;;;;;5087169;28;27402;-61
2021/03/31 11:36:30;;;;;;;4.43;1.70;;;39.90;25.70;;;;;;5087429;28;27339;-62
2021/03/31 11:39:16;;;;;;;5.18;1.55;;;39.90;26.40;;;;;;5087356;28;27326;-62
2021/03/31 11:42:01;;;;;;;4.47;2.10;;;40.00;26.50;;;;;;5086904;28;27356;-62
2021/03/31 11:44:46;;;;;;;6.70;2.10;;;40.00;26.40;;;;;;5103564;28;27395;-62
2021/03/31 11:47:31;;;;;;;3.00;1.65;;;40.00;26.30;;;;;;5107527;28;27421;-64
2021/03/31 11:50:16;;;;;;;7.38;2.15;;;40.10;26.80;;;;;;5107267;28;27312;-62
2021/03/31 11:53:00;;;;;;;3.63;1.60;;;40.10;26.00;;;;;;5091828;28;27362;-62
2021/03/31 11:55:45;;;;;;;9.07;2.03;;;40.20;26.30;;;;;;5092138;28;27418;-62
2021/03/31 11:58:29;;;;;;;4.15;2.20;;;40.20;26.20;;;;;;5106440;28;27648;-62
2021/03/31 12:01:14;;;;;;;5.35;1.95;;;40.30;25.90;;;;;;5107009;28;27439;-62
2021/03/31 12:03:58;;;;;;;5.20;2.35;;;40.30;26.80;;;;;;5106913;28;27341;-61
2021/03/31 12:06:43;;;;;;;4.38;2.17;;;40.20;25.90;;;;;;5092041;28;27538;-62
2021/03/31 12:09:28;;;;;;;8.38;3.75;;;40.30;26.40;;;;;;5107252;28;27359;-62
2021/03/31 12:12:14;;;;;;;8.65;4.80;;;40.10;20.10;;;;;;5107242;28;27388;-62
2021/03/31 12:14:58;;;;;;;9.50;4.28;;;38.80;17.30;;;;;;5106476;28;27341;-62
2021/03/31 12:17:43;;;;;;;6.45;4.50;;;37.60;17.30;;;;;;5107041;28;27392;-61
2021/03/31 12:20:28;;;;;;;5.43;4.28;;;36.60;17.80;;;;;;5106985;28;27345;-61
2021/03/31 12:23:12;;;;;;;5.35;3.60;;;36.00;18.20;;;;;;5106630;28;27391;-61
2021/03/31 12:25:58;;;;;;;7.15;3.70;;;35.60;18.30;;;;;;5106465;28;27344;-61
2021/03/31 12:28:49;;;;;;;8.30;4.03;;;35.20;18.70;;;;;;5106889;28;27340;-61
2021/03/31 12:31:34;;;;;;;10.65;3.80;;;34.80;19.20;;;;;;5106283;27;27473;-61
2021/03/31 12:34:18;;;;;;;7.18;4.00;;;34.70;19.20;;;;;;5091523;28;27529;-61
2021/03/31 12:37:03;;;;;;;11.30;4.07;;;34.60;19.30;;;;;;5106769;28;27415;-61
2021/03/31 12:39:47;;;;;;;8.43;4.82;;;34.40;18.70;;;;;;5106505;28;27421;-61
2021/03/31 12:42:32;;;;;;;7.60;4.13;;;34.30;19.20;;;;;;5106820;28;27452;-61
2021/03/31 12:45:16;;;;;;;7.47;4.00;;;34.10;19.10;;;;;;5106429;28;27398;-61
2021/03/31 12:48:01;;;;;;;5.13;3.65;;;34.00;18.50;;;;;;5106326;28;27407;-61
2021/03/31 12:50:48;;;;;;;8.90;4.47;;;34.00;19.70;;;;;;5106575;28;27388;-61
2021/03/31 12:53:43;;;;;;;6.53;4.03;;;34.00;18.70;;;;;;5105608;28;27443;-61
2021/03/31 12:56:28;;;;;;;7.15;3.45;;;34.00;19.50;;;;;;5106479;28;27456;-61
2021/03/31 12:59:12;;;;;;;6.30;3.28;;;33.80;19.80;;;;;;5106511;28;27495;-60
2021/03/31 13:01:57;;;;;;;5.82;2.00;;;34.20;22.20;;;;;;5106103;28;27472;-62
2021/03/31 13:04:42;;;;;;;17.83;3.55;;;34.80;23.00;;;;;;5091058;28;27474;-61
2021/03/31 13:07:26;;;;;;;7.90;2.97;;;35.20;22.00;;;;;;5106352;28;27374;-64
2021/03/31 13:10:13;;;;;;;9.95;2.10;;;35.50;22.90;;;;;;5106266;28;27343;-61
2021/03/31 13:13:08;;;;;;;3.25;2.00;;;36.00;24.00;;;;;;5105861;28;27547;-61
2021/03/31 13:15:59;;;;;;;10.07;1.50;;;36.40;24.40;;;;;;5105989;28;27489;-62
2021/03/31 13:24:48;;;;;;;8.15;1.73;;;37.40;25.10;;;;;;5105773;28;27361;-61
2021/03/31 13:33:41;;;;;;;3.03;1.55;;;37.80;25.00;;;;;;5098033;28;27459;-64
2021/03/31 13:36:34;;;;;;;4.43;1.52;;;37.90;25.30;;;;;;5105573;28;27384;-63
2021/03/31 13:39:30;;;;;;;3.53;1.45;;;38.00;26.90;;;;;;5102539;28;27347;-61
2021/03/31 13:42:15;;;;;;;3.67;1.50;;;38.00;26.90;;;;;;5105464;28;27340;-61
2021/03/31 13:45:00;;;;;;;3.00;1.50;;;38.00;27.40;;;;;;5103458;27;27888;-61
2021/03/31 13:47:54;;;;;;;6.30;1.65;;;38.00;27.40;;;;;;5104886;28;27387;-59
2021/03/31 13:50:38;;;;;;;5.18;1.60;;;38.00;27.60;;;;;;5105484;28;27442;-59
2021/03/31 13:53:23;;;;;;;6.22;1.98;;;38.00;28.20;;;;;;5105313;28;27574;-59
2021/03/31 13:56:16;;;;;;;2.53;1.20;;;37.90;27.40;;;;;;5105523;28;27379;-59
2021/03/31 13:59:01;;;;;;;6.00;1.48;;;37.90;27.50;;;;;;5105543;28;27408;-59
2021/03/31 14:01:46;;;;;;;8.98;2.05;;;37.90;28.00;;;;;;5105540;28;27404;-59
2021/03/31 14:04:30;;;;;;;5.45;1.55;;;37.80;27.90;;;;;;5089927;28;27498;-62
2021/03/31 14:07:16;;;;;;;5.07;1.75;;;37.80;27.90;;;;;;5090186;28;27849;-59
2021/03/31 14:10:01;;;;;;;4.25;1.52;;;37.70;28.40;;;;;;5105000;28;27530;-61
2021/03/31 14:12:48;;;;;;;9.60;1.52;;;37.60;27.80;;;;;;5089824;28;27637;-61
2021/03/31 14:15:33;;;;;;;4.78;1.77;;;37.50;27.90;;;;;;5102031;28;27324;-62
2021/03/31 14:18:18;;;;;;;4.15;1.67;;;37.40;27.30;;;;;;5104944;28;27873;-61
2021/03/31 14:21:03;;;;;;;5.50;1.88;;;37.30;26.60;;;;;;5104904;28;27406;-60
2021/03/31 14:23:47;;;;;;;6.20;1.83;;;37.10;26.20;;;;;;5104962;28;27348;-59
2021/03/31 14:26:32;;;;;;;4.95;2.00;;;37.00;27.20;;;;;;5105348;28;27379;-59
2021/03/31 14:29:16;;;;;;;7.85;2.15;;;36.90;24.90;;;;;;5105095;28;27461;-59
2021/03/31 14:32:00;;;;;;;4.22;1.73;;;36.80;24.60;;;;;;5105006;28;27451;-59
2021/03/31 14:34:45;;;;;;;3.53;1.85;;;36.60;25.90;;;;;;5104499;28;27435;-59
2021/03/31 14:37:30;;;;;;;5.45;1.40;;;36.50;26.40;;;;;;5105013;28;27466;-61
2021/03/31 14:40:15;;;;;;;4.72;1.58;;;36.30;28.30;;;;;;5103953;28;27415;-59
2021/03/31 14:42:59;;;;;;;5.55;1.50;;;36.20;29.00;;;;;;5085819;28;27413;-60
2021/03/31 14:45:44;;;;;;;7.85;1.30;;;36.10;29.80;;;;;;5104925;28;27518;-59
2021/03/31 14:48:32;;;;;;;3.35;1.30;;;35.90;29.30;;;;;;5104780;28;27450;-60
2021/03/31 14:51:20;;;;;;;4.30;1.80;;;35.70;30.00;;;;;;5060220;28;27476;-61
2021/03/31 14:57:19;;;;;;;5.32;1.98;;;35.50;30.50;;;;;;5104834;28;27352;-59
2021/03/31 15:00:08;;;;;;;7.13;1.60;;;35.30;31.00;;;;;;5104436;28;27336;-61
2021/03/31 15:02:53;;;;;;;2.47;1.85;;;35.20;30.70;;;;;;5104315;28;27491;-59
2021/03/31 15:05:37;;;;;;;2.67;1.30;;;35.00;29.50;;;;;;5104317;28;27421;-59
2021/03/31 15:08:22;;;;;;;5.03;1.92;;;34.90;29.90;;;;;;5104057;28;27452;-60